createdAt,value
2022-12-19T00:01:48.508Z,102103.06
2022-12-19T00:06:05.526Z,102094.87
2022-12-19T00:10:21.601Z,102103.91
2022-12-19T00:14:37.870Z,102106.31
2022-12-19T00:18:55.663Z,102105.09
2022-12-19T00:23:11.983Z,102105.66
2022-12-19T00:27:28.177Z,102106.69
2022-12-19T00:31:44.415Z,102100.63
2022-12-19T00:36:02.508Z,102097.87
2022-12-19T00:40:18.900Z,102096.84
2022-12-19T00:44:35.176Z,102100.22
2022-12-19T00:48:51.356Z,102089.44
2022-12-19T00:53:07.460Z,102082.59
2022-12-19T00:57:23.658Z,102080.78
2022-12-19T01:01:42.061Z,102085.59
2022-12-19T01:05:58.323Z,102082.81
2022-12-19T01:10:14.592Z,102076.97
2022-12-19T01:14:30.740Z,102074.63
2022-12-19T01:18:46.811Z,102073.16
2022-12-19T01:23:02.990Z,102063.56
2022-12-19T01:27:19.213Z,102053.53
2022-12-19T01:31:35.561Z,102038.97
2022-12-19T01:35:51.871Z,102033.75
2022-12-19T01:40:08.689Z,102029.53
2022-12-19T01:44:26.473Z,102032.63
2022-12-19T01:48:44.919Z,102029.87
2022-12-19T01:53:01.983Z,102028.91
2022-12-19T01:57:19.958Z,102038.34
2022-12-19T02:01:37.718Z,102028.22
2022-12-19T02:06:08.794Z,102038.28
2022-12-19T02:10:24.952Z,102028.91
2022-12-19T02:14:41.297Z,102019.94
2022-12-19T02:19:21.473Z,102019.91
2022-12-19T02:23:51.851Z,102028.66
2022-12-19T02:28:48.066Z,102031.50
2022-12-19T02:33:24.490Z,102034.88
2022-12-19T02:37:53.942Z,102039.91
2022-12-19T02:42:14.034Z,102041.97
2022-12-19T02:46:31.013Z,102036.84
2022-12-19T02:50:50.151Z,102048.91
2022-12-19T02:55:12.949Z,102043.47
2022-12-19T03:00:03.051Z,102048.28
2022-12-19T03:04:25.086Z,102038.56
2022-12-19T03:08:47.674Z,102036.19
2022-12-19T03:13:29.163Z,102016.50
2022-12-19T03:17:45.787Z,102011.59
2022-12-19T03:22:02.146Z,101991.84
2022-12-19T03:26:21.027Z,101988.12
2022-12-19T03:30:39.443Z,101980.81
2022-12-19T03:35:08.267Z,101984.41
2022-12-19T03:39:27.059Z,101987.84
2022-12-19T03:43:44.972Z,101996.66
2022-12-19T03:48:05.199Z,101993.22
2022-12-19T03:52:36.036Z,101988.12
2022-12-19T03:56:56.550Z,101995.44
2022-12-19T04:01:12.896Z,101991.59
2022-12-19T04:05:29.705Z,101999.72
2022-12-19T04:09:46.490Z,101996.97
2022-12-19T04:14:07.994Z,101992.75
2022-12-19T04:18:24.504Z,102004.72
2022-12-19T04:23:11.995Z,102000.34
2022-12-19T04:27:34.445Z,102005.69
2022-12-19T04:31:51.111Z,102000.78
2022-12-19T04:36:08.316Z,102000.19
2022-12-19T04:40:24.475Z,101989.87
2022-12-19T04:44:40.670Z,102003.09
2022-12-19T04:48:56.878Z,102002.94
2022-12-19T04:53:13.263Z,102003.34
2022-12-19T04:57:32.555Z,101996.53
2022-12-19T05:01:48.942Z,102001.09
2022-12-19T05:06:13.107Z,102015.50
2022-12-19T05:10:30.287Z,102006.84
2022-12-19T05:14:46.730Z,102008.16
2022-12-19T05:19:02.987Z,102001.91
2022-12-19T05:23:19.861Z,101998.50
2022-12-19T05:27:36.057Z,101991.47
2022-12-19T05:31:52.658Z,101989.97
2022-12-19T05:36:09.859Z,101997.09
2022-12-19T05:40:26.089Z,101992.47
2022-12-19T05:44:42.192Z,101994.91
2022-12-19T05:48:59.509Z,101999.84
2022-12-19T05:53:18.112Z,101997.25
2022-12-19T05:57:37.151Z,101991.00
2022-12-19T06:01:54.387Z,101998.47
2022-12-19T06:06:16.569Z,102002.94
2022-12-19T06:10:32.847Z,101999.37
2022-12-19T06:14:49.138Z,102002.78
2022-12-19T06:19:05.323Z,102007.72
2022-12-19T06:23:21.411Z,101995.56
2022-12-19T06:27:37.776Z,101994.12
2022-12-19T06:31:53.926Z,101991.78
2022-12-19T06:36:17.117Z,102002.94
2022-12-19T06:40:52.544Z,102004.94
2022-12-19T06:45:09.059Z,101999.25
2022-12-19T06:49:25.253Z,101999.03
2022-12-19T06:53:41.487Z,101997.78
2022-12-19T06:57:57.671Z,102017.06
2022-12-19T07:02:28.784Z,102012.38
2022-12-19T07:06:49.042Z,102015.09
2022-12-19T07:11:05.780Z,102022.25
2022-12-19T07:15:22.106Z,102016.19
2022-12-19T07:19:38.978Z,102017.41
2022-12-19T07:23:55.441Z,102001.81
2022-12-19T07:28:11.702Z,102018.00
2022-12-19T07:32:27.959Z,102010.09
2022-12-19T07:36:44.194Z,102002.59
2022-12-19T07:41:02.419Z,101998.12
2022-12-19T07:45:18.655Z,102001.59
2022-12-19T07:49:35.472Z,102022.41
2022-12-19T07:53:51.741Z,102025.72
2022-12-19T07:58:10.567Z,102036.94
2022-12-19T08:02:26.792Z,102042.44
2022-12-19T08:06:43.119Z,102037.19
2022-12-19T08:11:19.050Z,102035.34
2022-12-19T08:15:35.166Z,102038.66
2022-12-19T08:19:51.301Z,102059.38
2022-12-19T08:24:07.850Z,102054.69
2022-12-19T08:28:23.983Z,102054.16
2022-12-19T08:32:40.322Z,102038.31
2022-12-19T08:36:56.604Z,102032.22
2022-12-19T08:41:13.121Z,102029.75
2022-12-19T08:45:29.269Z,102034.47
2022-12-19T08:49:45.596Z,102031.66
2022-12-19T08:54:01.841Z,102041.47
2022-12-19T08:58:26.828Z,102031.41
2022-12-19T09:02:43.177Z,102037.00
2022-12-19T09:06:59.433Z,102018.22
2022-12-19T09:11:17.841Z,102034.38
2022-12-19T09:15:33.991Z,102036.78
2022-12-19T09:19:51.999Z,102047.16
2022-12-19T09:24:08.992Z,102057.06
2022-12-19T09:28:27.707Z,102032.69
2022-12-19T09:32:44.255Z,102030.94
2022-12-19T09:37:00.419Z,102025.63
2022-12-19T09:41:41.279Z,102024.34
2022-12-19T09:46:20.977Z,102016.75
2022-12-19T09:51:11.228Z,102015.31
2022-12-19T09:55:35.584Z,102019.50
2022-12-19T10:00:05.361Z,102008.31
2022-12-19T10:04:23.310Z,102005.47
2022-12-19T10:09:38.597Z,102009.37
2022-12-19T10:13:37.593Z,102010.84
2022-12-19T10:18:08.066Z,102011.41
2022-12-19T10:22:44.814Z,101992.78
2022-12-19T10:27:03.923Z,101988.50
2022-12-19T10:31:42.040Z,101994.12
2022-12-19T10:36:02.049Z,101986.72
2022-12-19T10:40:34.319Z,101993.03
2022-12-19T10:44:52.391Z,101985.41
2022-12-19T10:49:26.190Z,101982.22
2022-12-19T10:53:52.895Z,101980.09
2022-12-19T10:58:27.841Z,101968.69
2022-12-19T11:02:51.613Z,101969.63
2022-12-19T11:07:21.199Z,101964.03
2022-12-19T11:15:34.446Z,101981.97
2022-12-19T11:23:10.541Z,101965.50
2022-12-19T11:29:37.375Z,101956.84
2022-12-19T11:29:40.989Z,101957.38
2022-12-19T11:35:24.368Z,101919.16
2022-12-19T11:40:10.975Z,101912.22
2022-12-19T11:44:34.491Z,101895.41
2022-12-19T11:49:01.366Z,101909.72
2022-12-19T11:53:46.372Z,101903.75
2022-12-19T11:58:02.600Z,101910.06
2022-12-19T12:02:37.175Z,101899.59
2022-12-19T12:06:55.224Z,101902.78
2022-12-19T12:15:29.339Z,101889.31
2022-12-19T12:27:04.810Z,101882.88
2022-12-19T12:31:23.446Z,101890.03
2022-12-19T12:31:53.473Z,101894.00
2022-12-19T12:35:38.558Z,101891.31
2022-12-19T12:41:03.171Z,101895.63
2022-12-19T12:45:27.491Z,101892.97
2022-12-19T12:49:50.645Z,101897.06
2022-12-19T12:54:11.147Z,101887.94
2022-12-19T12:58:54.162Z,101880.22
2022-12-19T13:03:17.318Z,101874.81
2022-12-19T13:07:42.796Z,101868.91
2022-12-19T13:12:22.372Z,101857.09
2022-12-19T13:16:44.386Z,101869.16
2022-12-19T13:21:02.460Z,101864.22
2022-12-19T13:25:38.794Z,101850.59
2022-12-19T13:30:00.665Z,101845.38
2022-12-19T13:34:20.229Z,101831.56
2022-12-19T13:39:51.157Z,101839.03
2022-12-19T13:43:49.503Z,101828.06
2022-12-19T13:48:09.313Z,101830.41
2022-12-19T13:52:26.916Z,101845.62
2022-12-19T13:56:43.545Z,101851.22
2022-12-19T14:01:05.064Z,101856.66
2022-12-19T14:06:14.752Z,101851.72
2022-12-19T14:11:34.251Z,101849.81
2022-12-19T14:15:14.444Z,101841.09
2022-12-19T14:19:37.599Z,101846.81
2022-12-19T14:24:14.961Z,101847.41
2022-12-19T14:29:02.264Z,101840.34
2022-12-19T14:33:44.839Z,101837.41
2022-12-19T14:39:22.990Z,101847.72
2022-12-19T14:43:57.608Z,101843.75
2022-12-19T14:54:14.082Z,101841.81
2022-12-19T14:54:26.486Z,101828.19
2022-12-19T14:57:46.434Z,101845.72
2022-12-19T15:02:28.167Z,101827.13
2022-12-19T15:07:09.740Z,101827.03
2022-12-19T15:12:06.203Z,101829.13
2022-12-19T15:16:29.774Z,101835.88
2022-12-19T15:20:45.999Z,101835.94
2022-12-19T15:25:02.222Z,101846.91
2022-12-19T15:29:22.306Z,101839.44
2022-12-19T15:33:59.745Z,101831.56
2022-12-19T15:38:14.726Z,101826.59
2022-12-19T15:42:31.664Z,101813.94
2022-12-19T15:46:49.616Z,101814.75
2022-12-19T15:51:06.263Z,101821.50
2022-12-19T15:55:24.137Z,101825.03
2022-12-19T15:59:44.456Z,101823.41
2022-12-19T16:04:03.747Z,101825.63
2022-12-19T16:08:22.033Z,101823.41
2022-12-19T16:13:01.057Z,101816.00
2022-12-19T16:17:21.278Z,101797.47
2022-12-19T16:21:37.508Z,101800.28
2022-12-19T16:25:53.841Z,101792.59
2022-12-19T16:30:28.959Z,101797.13
2022-12-19T16:34:45.275Z,101784.69
2022-12-19T16:39:01.634Z,101785.13
2022-12-19T16:43:37.584Z,101793.19
2022-12-19T16:47:53.929Z,101802.53
2022-12-19T16:52:10.490Z,101787.25
2022-12-19T16:56:29.722Z,101787.06
2022-12-19T17:00:46.115Z,101798.06
2022-12-19T17:05:06.487Z,101813.16
2022-12-19T17:09:24.905Z,101814.06
2022-12-19T17:13:41.766Z,101807.06
2022-12-19T17:18:00.164Z,101798.78
2022-12-19T17:22:18.369Z,101809.16
2022-12-19T17:26:36.411Z,101806.34
2022-12-19T17:30:55.562Z,101803.09
2022-12-19T17:35:27.264Z,101805.59
2022-12-19T17:39:44.219Z,101807.28
2022-12-19T17:44:00.539Z,101821.59
2022-12-19T17:48:28.797Z,101817.00
2022-12-19T17:52:46.439Z,101821.41
2022-12-19T17:57:02.651Z,101817.19
2022-12-19T18:01:23.563Z,101819.09
2022-12-19T18:05:40.383Z,101825.25
2022-12-19T18:09:56.540Z,101821.91
2022-12-19T18:14:13.011Z,101816.69
2022-12-19T18:18:35.755Z,101807.28
2022-12-19T18:22:52.527Z,101809.09
2022-12-19T18:27:08.964Z,101799.81
2022-12-19T18:31:26.340Z,101779.78
2022-12-19T18:35:45.093Z,101772.41
2022-12-19T18:40:01.204Z,101772.47
2022-12-19T18:44:17.806Z,101753.44
2022-12-19T18:48:37.116Z,101749.19
2022-12-19T18:52:54.055Z,101761.03
2022-12-19T18:57:10.263Z,101754.06
2022-12-19T19:01:27.155Z,101752.50
2022-12-19T19:05:43.760Z,101746.13
2022-12-19T19:09:59.935Z,101737.47
2022-12-19T19:14:16.335Z,101728.34
2022-12-19T19:18:40.444Z,101729.31
2022-12-19T19:23:02.336Z,101718.97
2022-12-19T19:27:18.768Z,101723.59
2022-12-19T19:31:37.129Z,101708.66
2022-12-19T19:35:57.224Z,101719.03
2022-12-19T19:40:14.179Z,101725.97
2022-12-19T19:44:30.392Z,101729.13
2022-12-19T19:48:46.531Z,101733.56
2022-12-19T19:53:02.887Z,101735.88
2022-12-19T19:57:19.209Z,101732.53
2022-12-19T20:01:35.586Z,101732.34
2022-12-19T20:05:59.322Z,101736.06
2022-12-19T20:10:15.714Z,101736.44
2022-12-19T20:14:31.907Z,101733.56
2022-12-19T20:18:52.120Z,101742.13
2022-12-19T20:23:08.270Z,101757.19
2022-12-19T20:27:24.714Z,101753.91
2022-12-19T20:31:41.900Z,101750.22
2022-12-19T20:36:05.326Z,101752.53
2022-12-19T20:40:21.645Z,101751.75
2022-12-19T20:44:37.702Z,101748.75
2022-12-19T20:48:57.000Z,101750.47
2022-12-19T20:53:13.182Z,101731.87
2022-12-19T20:57:30.620Z,101728.28
2022-12-19T21:01:47.153Z,101723.88
2022-12-19T21:06:03.728Z,101716.50
2022-12-19T21:10:20.680Z,101718.91
2022-12-19T21:14:36.772Z,101716.03
2022-12-19T21:18:52.941Z,101725.94
2022-12-19T21:23:09.131Z,101717.16
2022-12-19T21:27:25.286Z,101733.72
2022-12-19T21:31:41.556Z,101726.81
2022-12-19T21:35:58.148Z,101732.03
2022-12-19T21:40:14.661Z,101722.53
2022-12-19T21:44:30.863Z,101719.19
2022-12-19T21:48:48.788Z,101712.44
2022-12-19T21:53:04.884Z,101709.78
2022-12-19T21:57:20.978Z,101701.16
2022-12-19T22:01:37.283Z,101691.37
2022-12-19T22:05:54.589Z,101695.03
2022-12-19T22:10:11.096Z,101675.28
2022-12-19T22:14:27.337Z,101671.47
2022-12-19T22:18:43.709Z,101662.53
2022-12-19T22:22:59.865Z,101663.56
2022-12-19T22:27:15.989Z,101652.56
2022-12-19T22:31:33.347Z,101639.12
2022-12-19T22:35:49.518Z,101634.63
2022-12-19T22:40:06.462Z,101633.56
2022-12-19T22:44:24.323Z,101618.09
2022-12-19T22:48:41.049Z,101615.12
2022-12-19T22:52:57.279Z,101626.03
2022-12-19T22:57:13.397Z,101636.13
2022-12-19T23:01:32.577Z,101627.75
2022-12-19T23:05:52.086Z,101623.66
2022-12-19T23:10:09.008Z,101624.66
2022-12-19T23:14:25.216Z,101624.28
2022-12-19T23:18:41.953Z,101627.72
2022-12-19T23:22:58.093Z,101606.44
2022-12-19T23:27:14.216Z,101606.31
2022-12-19T23:31:32.498Z,101603.31
2022-12-19T23:35:48.678Z,101605.41
2022-12-19T23:40:05.259Z,101583.81
2022-12-19T23:44:21.448Z,101602.38
2022-12-19T23:48:37.651Z,101605.66
2022-12-19T23:52:53.888Z,101612.00
2022-12-19T23:57:10.012Z,101617.63
